Terminal Aerodrome Forecast
Issued by NWS Billings, MT

Home | Current Version | Previous Version | Text Only | Print | Product List | Glossary On
Versions: 1 2 3 4 5 6 7 8 9 10 11 12 13 14 15 16 17 18 19 20 21 22 23 24 25 26 27 28 29 30 31 32 33 34 35 36 37 38
735
FTUS45 KBYZ 271120
TAFBIL
TAF
KBIL 271120Z 2712/2812 VRB05KT P6SM FEW050 SCT090
     FM271700 08008KT P6SM SCT050 SCT250
     FM272000 08008KT P6SM VCTS FEW025 BKN050CB OVC250
     FM280400 VRB05KT P6SM VCSH FEW015 BKN050=

USA.gov is the U.S. government's official web portal to all federal, state and local government web resources and services.